Home > Products > Valid Products > TAF

000
FTUS43 KSGF 211700 CCA
TAFSGF
TAF COR
KSGF 211741Z 2118/2218 17011KT P6SM BKN008 OVC035
      TEMPO 2118/2122 FEW008 SCT025 OVC035
     FM212200 16011KT P6SM SCT015 OVC035
     FM220400 15015G21KT P6SM OVC030
     FM221200 16013KT 5SM BR VCSH OVC011=



000
FTUS43 KSGF 211700
TAFSGF
TAF
KSGF 211733Z 2118/2218 17011KT P6SM OVC008
      TEMPO 2119/2123 FEW008 SCT025 OVC035
     FM212300 16011KT P6SM SCT015 OVC035
     FM220400 15015G21KT P6SM OVC030
     FM221200 16013KT 5SM BR VCSH OVC011=



000
FTUS43 KSGF 211700
TAFJLN
TAF
KJLN 211733Z 2118/2218 17010KT P6SM BKN010 OVC025
      TEMPO 2119/2123 SCT010 SCT025 OVC035
     FM212300 16011KT P6SM SCT015 OVC035
     FM220400 16014KT P6SM OVC030
     FM220900 16013KT 5SM BR VCSH OVC020
     FM221200 18012KT 5SM BR VCSH OVC012=



000
FTUS43 KSGF 211500 AAA
TAFSGF
TAF AMD
KSGF 211543Z 2116/2212 17007KT P6SM BKN006 OVC025
      TEMPO 2116/2119 SCT006 OVC025
     FM211900 17011KT P6SM OVC025
     FM220000 16015KT P6SM OVC040=



000
FTUS43 KSGF 211200 AAA
TAFJLN
TAF AMD
KJLN 211250Z 2113/2212 17008KT 6SM BR BKN009 OVC015
     FM211700 18012KT P6SM OVC020
     FM220400 17015KT P6SM OVC015=



000
FTUS43 KSGF 211200 AAA
TAFJLN
TAF AMD
KJLN 211250Z 2113/2212 17008KT 6SM BR BKN009 OVC015
     FM211700 18012KT P6SM OVC020
     FM220400 17015KT P6SM OVC015=



000
FTUS43 KSGF 211100
TAFJLN
TAF
KJLN 211120Z 2112/2212 18008KT P6SM OVC015
     FM211700 18012KT P6SM OVC020
     FM220400 17015KT P6SM OVC015=



000
FTUS43 KSGF 211100
TAFSGF
TAF
KSGF 211120Z 2112/2212 18007KT P6SM OVC025
     FM211700 17011KT P6SM OVC025
     FM220000 16015KT P6SM OVC040=



000
FTUS43 KSGF 211000 AAB
TAFJLN
TAF AMD
KJLN 211000Z 2110/2206 18008KT P6SM OVC015
     FM211700 18012KT P6SM OVC020=



000
FTUS43 KSGF 211000 AAB
TAFJLN
TAF AMD
KJLN 211000Z 2110/2206 18008KT P6SM OVC015
     FM211700 18012KT P6SM OVC020=



000
FTUS43 KSGF 210900 AAA
TAFSGF
TAF AMD
KSGF 210902Z 2109/2206 18007KT P6SM OVC025
     FM211700 17011KT P6SM OVC020=



000
FTUS43 KSGF 210700 AAA
TAFJLN
TAF AMD
KJLN 210756Z 2108/2206 18008KT P6SM OVC015
     FM210900 18008KT 4SM BR OVC012
     FM211700 18012KT P6SM OVC020=



000
FTUS43 KSGF 210600 AAA
TAFSGF
TAF AMD
KSGF 210632Z 2107/2206 18007KT P6SM OVC025
     FM210900 16008KT 4SM BR OVC012
     FM211700 17011KT P6SM OVC020=



000
FTUS43 KSGF 210500
TAFSGF
TAF
KSGF 210532Z 2106/2206 16007KT P6SM OVC020
     FM210900 16008KT 4SM BR OVC012
     FM211700 17011KT P6SM OVC020=



000
FTUS43 KSGF 210500
TAFJLN
TAF
KJLN 210532Z 2106/2206 18008KT P6SM OVC020
     FM210900 18008KT 4SM BR OVC012
     FM211700 18012KT P6SM OVC020=



000
FTUS43 KSGF 210400 AAB
TAFJLN
TAF AMD
KJLN 210444Z 2105/2124 18010KT P6SM OVC020
     FM211200 18010KT 4SM BR OVC012
     FM211700 18012KT P6SM OVC015=



000
FTUS43 KSGF 210400 AAB
TAFJLN
TAF AMD
KJLN 210444Z 2105/2124 18010KT P6SM OVC020
     FM211200 18010KT 4SM BR OVC012
     FM211700 18012KT P6SM OVC015=



000
FTUS43 KSGF 210300 AAA
TAFSGF
TAF AMD
KSGF 210312Z 2103/2124 16005KT P6SM OVC020
     FM210900 16008KT 4SM BR OVC012
     FM211800 17010KT P6SM OVC020=



000
FTUS43 KSGF 210300 AAA
TAFJLN
TAF AMD
KJLN 210310Z 2103/2124 19010KT P6SM OVC015
     FM211200 18010KT 4SM BR OVC012
     FM211700 18012KT P6SM OVC015=



000
FTUS43 KSGF 202300
TAFJLN
TAF
KJLN 202320Z 2100/2124 18005KT P6SM OVC020
     FM210300 17005KT P6SM OVC015
     FM210900 17008KT 5SM BR OVC010
     FM211200 18010KT 4SM BR OVC008
     FM211700 18012KT P6SM OVC015=



000
FTUS43 KSGF 202300
TAFSGF
TAF
KSGF 202320Z 2100/2124 16005KT P6SM OVC015
     FM211000 16008KT 4SM BR OVC008
     FM211800 17010KT P6SM OVC012=



000
FTUS43 KSGF 201700
TAFSGF
TAF
KSGF 201731Z 2018/2118 21006KT P6SM OVC009
      TEMPO 2018/2020 BKN010 OVC015
     FM202000 18005KT P6SM OVC015
     FM211000 16008KT 5SM BR OVC008
     FM211500 16009KT P6SM OVC015=



000
FTUS43 KSGF 201700
TAFJLN
TAF
KJLN 201731Z 2018/2118 20004KT P6SM BKN015
     FM202000 19007KT P6SM BKN025
     FM210300 17005KT P6SM BKN015
     FM210900 17008KT 4SM BR OVC015
     FM211600 18009KT P6SM OVC020=



000
FTUS43 KSGF 201600 AAB
TAFSGF
TAF AMD
KSGF 201653Z 2017/2112 22005KT P6SM OVC009
      TEMPO 2017/2021 BKN010 OVC015
     FM202100 19005KT P6SM OVC015
     FM202300 17006KT P6SM OVC025
     FM210900 16008KT 4SM BR OVC015=



000
FTUS43 KSGF 201600 AAB
TAFJLN
TAF AMD
KJLN 201602Z 2016/2112 20004KT P6SM BKN015
     FM202200 18005KT P6SM OVC025
     FM210900 17008KT 4SM BR OVC015=



000
FTUS43 KSGF 201400 AAA
TAFJLN
TAF AMD
KJLN 201447Z 2015/2112 VRB04KT 5SM BR BKN025
     FM201700 18005KT P6SM OVC015
     FM202200 18005KT P6SM OVC025
     FM210900 17008KT 4SM BR OVC015=



000
FTUS43 KSGF 201400 AAA
TAFSGF
TAF AMD
KSGF 201444Z 2015/2112 VRB04KT 3SM BR OVC003
     FM201600 18005KT P6SM BKN008
     FM202100 19005KT P6SM OVC015
     FM202300 17006KT P6SM OVC025
     FM210900 16008KT 4SM BR OVC015=



000
FTUS43 KSGF 201300 AAA
TAFSGF
TAF AMD
KSGF 201309Z 2013/2112 VRB03KT 1/4SM FG OVC002
      TEMPO 2013/2014 1SM BR OVC003
     FM201400 VRB04KT 1SM BR OVC003
     FM201600 18005KT P6SM BKN008
     FM202100 19005KT P6SM OVC015
     FM202300 17006KT P6SM OVC025
     FM210900 16008KT 4SM BR OVC015=



000
FTUS43 KSGF 201100 CCA
TAFSGF
TAF COR
KSGF 201159Z 2012/2112 VRB03KT 1SM BR OVC003
      TEMPO 2012/2014 2SM BR OVC003
     FM201600 18005KT P6SM BKN008
     FM202100 19005KT P6SM OVC015
     FM202300 17006KT P6SM OVC025
     FM210900 16008KT 4SM BR OVC015=



000
FTUS43 KSGF 201100
TAFSGF
TAF
KSGF 201120Z 2012/2112 VRB03KT 3SM BR OVC003
      TEMPO 2012/2014 2SM BR OVC003
     FM201600 18005KT P6SM BKN008
     FM202100 19005KT P6SM OVC015
     FM202300 17006KT P6SM OVC025
     FM210900 16008KT 4SM BR OVC015=



000
FTUS43 KSGF 201100
TAFJLN
TAF
KJLN 201120Z 2012/2112 27004KT 5SM BR OVC008
     FM201900 18005KT P6SM OVC015
     FM202200 18005KT P6SM OVC025
     FM210900 17008KT 4SM BR OVC015=



000
FTUS43 KSGF 200600 AAA
TAFJLN
TAF AMD
KJLN 200609Z 2006/2106 27004KT 2SM BR OVC002
     FM201900 18005KT 4SM BR BKN008
     FM202200 18005KT P6SM SCT030 SCT250
     FM210100 17006KT 1/2SM FG BKN025=



000
FTUS43 KSGF 200500
TAFJLN
TAF
KJLN 200523Z 2006/2106 VRB03KT 1/4SM FG VV002
     FM201900 18005KT 4SM BR BKN008
     FM202200 18005KT P6SM SCT030 SCT250
     FM210100 17006KT 1/2SM FG BKN025=



000
FTUS43 KSGF 200500
TAFSGF
TAF
KSGF 200523Z 2006/2106 16006KT 6SM -RADZ BR OVC004
     FM200800 VRB03KT 3SM BR OVC004
      TEMPO 2010/2014 1SM BR OVC003
     FM201600 18005KT P6SM BKN008
     FM202100 19005KT P6SM OVC015
     FM210100 17005KT P6SM SCT030 SCT250=



000
FTUS43 KSGF 200100 AAA
TAFSGF
TAF AMD
KSGF 200102Z 2001/2024 16005KT P6SM OVC005
     FM200800 VRB03KT 4SM BR OVC004
      TEMPO 2010/2014 1SM BR OVC003
     FM201600 18005KT P6SM BKN008
     FM202200 19005KT P6SM SCT030 SCT250=



000
FTUS43 KSGF 192300 CCA
TAFJLN
TAF COR
KJLN 192340Z 2000/2024 VRB03KT 4SM BR OVC004
     FM200200 VRB02KT 1/2SM FG VV001
      TEMPO 2010/2014 1/4SM FG
     FM201700 20005KT 4SM BR BKN008
     FM202100 20005KT P6SM FEW030 SCT250=



000
FTUS43 KSGF 192300 CCA
TAFSGF
TAF COR
KSGF 192338Z 2000/2024 14005KT P6SM OVC008
     FM200800 VRB03KT 4SM BR OVC004
      TEMPO 2010/2014 1SM BR OVC003
     FM201600 18005KT P6SM BKN008
     FM202200 19005KT P6SM SCT030 SCT250=



000
FTUS43 KSGF 192300
TAFSGF
TAF
KSGF 192336Z 2000/2024 14006KT P6SM OVC008
     FM200800 VRB03KT 4SM BR OVC004
      TEMPO 2010/2014 1SM BR OVC003
     FM201600 18005KT P6SM BKN008=



000
FTUS43 KSGF 192300
TAFJLN
TAF
KJLN 192336Z 2000/2024 VRB03KT 4SM BR OVC004
     FM200200 VRB03KT 1/2SM FG VV002
      TEMPO 2010/2014 1/4SM FG
     FM201600 20005KT 4SM BR BKN008=



000
FTUS43 KSGF 192100 AAB
TAFJLN
TAF AMD
KJLN 192134Z 1922/2018 VRB03KT 1SM BR OVC003
     FM200200 VRB03KT 1/2SM FG VV002
      TEMPO 2010/2014 1/4SM FG
     FM201600 20005KT 4SM BR BKN008=



000
FTUS43 KSGF 191900 AAA
TAFSGF
TAF AMD
KSGF 191919Z 1919/2018 12005KT 5SM BR OVC006
     FM200800 VRB03KT 4SM BR OVC004
      TEMPO 2010/2014 1SM BR OVC003
     FM201600 18005KT P6SM BKN008=



000
FTUS43 KSGF 191800 AAA
TAFJLN
TAF AMD
KJLN 191857Z 1919/2018 VRB03KT 1/4SM FG VV002
      TEMPO 1919/1921 2SM BR OVC003
     FM192100 VRB03KT 4SM BR OVC006
     FM200400 VRB03KT 2SM BR OVC004
     FM200700 VRB03KT 1SM BR OVC003
      TEMPO 2010/2014 1/2SM FG VV002
     FM201600 20005KT 4SM BR BKN008=



000
FTUS43 KSGF 191700
TAFJLN
TAF
KJLN 191721Z 1918/2018 VRB03KT 2SM BR OVC003
     FM192100 VRB03KT 4SM BR OVC006
     FM200400 VRB03KT 2SM BR OVC004
     FM200700 VRB03KT 1SM BR OVC003
      TEMPO 2010/2014 1/2SM FG VV002
     FM201600 20005KT 4SM BR BKN008=



000
FTUS43 KSGF 191700
TAFSGF
TAF
KSGF 191721Z 1918/2018 12005KT P6SM OVC008
     FM200800 VRB03KT 4SM BR OVC004
      TEMPO 2010/2014 1SM BR OVC003
     FM201600 18005KT P6SM BKN008=



000
FTUS43 KSGF 191200 AAA
TAFSGF
TAF AMD
KSGF 191259Z 1913/2012 09003KT 6SM BR OVC007
     FM191900 VRB03KT P6SM OVC007
     FM192200 VRB03KT P6SM OVC008
     FM200300 VRB03KT 3SM BR OVC004
     FM200700 VRB03KT 1SM BR OVC002=



000
FTUS43 KSGF 191100 CCB
TAFJLN
TAF COR
KJLN 191158Z 1912/2012 VRB03KT 1 1/2SM BR VV002
     FM191600 VRB03KT 1SM BR OVC004
     FM191800 VRB03KT 4SM BR OVC007
     FM200200 VRB03KT 6SM BR OVC008
     FM200700 VRB03KT 1SM BR OVC003=



000
FTUS43 KSGF 191100 CCA
TAFSGF
TAF COR
KSGF 191145Z 1912/2012 09003KT 3SM BR OVC003
     FM191900 VRB03KT 4SM BR OVC006
     FM192200 VRB03KT P6SM OVC008
     FM200300 VRB03KT 3SM BR OVC004
     FM200700 VRB03KT 1SM BR OVC002=



000
FTUS43 KSGF 191100 CCA
TAFJLN
TAF COR
KJLN 191144Z 1912/2012 VRB03KT 1SM BR VV002
     FM191600 VRB03KT 1SM BR OVC004
     FM191800 VRB03KT 4SM BR OVC007
     FM200200 VRB03KT 6SM BR OVC008
     FM200700 VRB03KT 1SM BR OVC003=



000
FTUS43 KSGF 191100
TAFSGF
TAF
KSGF 191120Z 1912/2012 09003KT 2SM BR OVC003
     FM191900 VRB03KT 4SM BR OVC006
     FM192200 VRB03KT P6SM OVC008
     FM200300 VRB03KT 3SM BR OVC004
     FM200700 VRB03KT 1SM BR OVC002=



000
FTUS43 KSGF 191100
TAFJLN
TAF
KJLN 191120Z 1912/2012 VRB03KT 1/4SM FG VV002
     FM191600 VRB03KT 1SM BR OVC004
     FM191800 VRB03KT 4SM BR OVC007
     FM200200 VRB03KT 6SM BR OVC008
     FM200700 VRB03KT 1SM BR OVC003=



000
FTUS43 KSGF 190900 AAA
TAFSGF
TAF AMD
KSGF 190957Z 1910/2006 08003KT 5SM BR OVC004
     FM191200 09003KT 2SM BR OVC003
     FM191900 VRB03KT 4SM BR OVC006
     FM192200 VRB03KT P6SM OVC008
     FM200300 VRB03KT 3SM BR OVC004=



000
FTUS43 KSGF 190900 AAA
TAFSGF
TAF AMD
KSGF 190957Z 1910/2006 08003KT 5SM BR OVC004
     FM191200 09003KT 2SM BR OVC003
     FM191900 VRB03KT 4SM BR OVC006
     FM192200 VRB03KT P6SM OVC008
     FM200300 VRB03KT 3SM BR OVC004=



000
FTUS43 KSGF 190900 AAA
TAFJLN
TAF AMD
KJLN 190956Z 1910/2006 VRB03KT 1/4SM FG VV002
     FM191500 VRB03KT 3SM BR OVC004
     FM191800 VRB03KT 5SM BR OVC007
     FM192000 VRB03KT P6SM OVC010
     FM200200 VRB03KT 6SM BR OVC008=



000
FTUS43 KSGF 190900 AAA
TAFJLN
TAF AMD
KJLN 190956Z 1910/2006 VRB03KT 1/4SM FG VV002
     FM191500 VRB03KT 3SM BR OVC004
     FM191800 VRB03KT 5SM BR OVC007
     FM192000 VRB03KT P6SM OVC010
     FM200200 VRB03KT 6SM BR OVC008=



000
FTUS43 KSGF 190500
TAFJLN
TAF
KJLN 190520Z 1906/2006 VRB03KT 6SM BR OVC003
     FM190800 VRB03KT 1SM BR OVC002
     FM191000 VRB03KT 1/2SM FG VV002
     FM191500 VRB03KT 3SM BR OVC004
     FM191800 VRB03KT 5SM BR OVC007
     FM192000 VRB03KT P6SM OVC010
     FM200200 VRB03KT 6SM BR OVC008=



000
FTUS43 KSGF 190500
TAFSGF
TAF
KSGF 190520Z 1906/2006 08003KT 2SM BR OVC003
     FM190900 09003KT 1/2SM FG VV002
     FM191500 11004KT 1 1/2SM BR OVC003
     FM191900 VRB03KT 4SM BR OVC006
     FM192200 VRB03KT P6SM OVC008
     FM200300 VRB03KT 3SM BR OVC004=



000
FTUS43 KSGF 190200 AAA
TAFJLN
TAF AMD
KJLN 190248Z 1903/1924 VRB03KT 6SM BR OVC003
     FM190400 VRB03KT 3SM BR OVC003
     FM190600 VRB03KT 1SM BR OVC002
     FM190900 VRB03KT 1/2SM FG VV002
     FM191500 VRB04KT 2SM BR OVC004
     FM191800 09004KT 4SM BR OVC007=



000
FTUS43 KSGF 190000 CCA
TAFJLN
TAF COR
KJLN 190011Z 1900/1924 VRB03KT 6SM BR OVC015
     FM190200 VRB03KT 4SM BR OVC009
     FM190600 VRB03KT 2SM BR OVC004
     FM190800 VRB03KT 1SM BR OVC002
     FM191000 VRB03KT 1/2SM FG VV002
     FM191500 VRB04KT 2SM BR OVC004
     FM191800 09004KT 4SM BR OVC007=



000
FTUS43 KSGF 182300
TAFSGF
TAF
KSGF 182337Z 1900/1924 VRB03KT 6SM BR OVC007
     FM190200 VRB03KT 3SM BR OVC004
     FM190600 VRB03KT 1SM BR OVC003
     FM190900 VRB03KT 1/2SM FG VV002
     FM191500 VRB04KT 1 1/2SM BR OVC003
     FM191900 11004KT 4SM BR OVC007=



000
FTUS43 KSGF 182300
TAFJLN
TAF
KJLN 182337Z 1900/1924 VRB03KT 6SM BR OVC008
     FM190200 VRB03KT 4SM BR OVC005
     FM190600 VRB03KT 2SM BR OVC004
     FM190800 VRB03KT 1SM BR OVC002
     FM191000 VRB03KT 1/2SM FG VV002
     FM191500 VRB04KT 2SM BR OVC004
     FM191800 09004KT 4SM BR OVC007=



000
FTUS43 KSGF 181900 AAA
TAFJLN
TAF AMD
KJLN 181909Z 1819/1918 VRB03KT P6SM OVC008
     FM190100 VRB03KT 6SM BR OVC004
     FM190400 00000KT 4SM BR OVC003
     FM190900 VRB03KT 1SM BR OVC002
      TEMPO 1910/1914 1/2SM FG VV002
     FM191500 VRB04KT 3SM BR OVC003=



    US Dept of Commerce
    National Oceanic and Atmospheric Administration
    National Weather Service
    1325 East West Highway
    Silver Spring, MD 20910
    Page Author: NWS Internet Services Team
Disclaimer
Information Quality
Credits
Glossary
Privacy Policy
Freedom of Information Act (FOIA)
About Us
Career Opportunities